Weather at Minneapolis–Saint Paul International Airport / Wold–Chamberlain Field

Public forecast

Using degrees Fahrenheit for public forecast. Weather courtesy of forecast.io.

Current aviation weather report (METAR) for Minneapolis–Saint Paul International Airport / Wold–Chamberlain Field

Retrieved 2021/05/11 19:53 UTC (39 minutes ago):

KMSP 111953Z 33009KT 10SM FEW075 16/M05 A3033 RMK AO2 SLP277 T01561050

Aviation forecast (TAF) for Minneapolis–Saint Paul International Airport / Wold–Chamberlain Field

Retrieved 2021/05/11 18:22 UTC (2 hours ago):

TAF KMSP 111721Z 1118/1224 34005KT P6SM FEW070 FM120100 VRB03KT P6SM SKC FM121400 20006KT P6SM FEW250